Terminal Aerodrome Forecast
Issued by NWS

Home | Current Version | Previous Version | Text Only | Print | Product List | Glossary On
Versions: 1 2 3 4 5 6 7 8 9 10 11 12 13 14 15 16 17 18 19 20 21 22 23 24 25 26 27 28 29
000
FTUS41 KCTP 272328
TAFUNV
TAF
KUNV 272328Z 2800/2824 20007KT P6SM VCSH SCT030 BKN100
      TEMPO 2800/2803 23008G20KT 5SM -TSRA BR OVC035CB
     FM280400 27008KT P6SM BKN035
     FM280900 28007KT P6SM OVC020
     FM281300 24007KT P6SM SCT250=

USA.gov is the U.S. government's official web portal to all federal, state and local government web resources and services.